Terminal Aerodrome Forecast
Issued by NWS

Home | Current Version | Previous Version | Text Only | Print | Product List | Glossary On
Versions: 1 2 3 4 5 6 7 8 9 10 11 12 13 14 15 16 17 18 19
000
FTUS41 KBOX 171722
TAFBAF
TAF
KBAF 171722Z 1718/1818 04009KT P6SM SCT250
     FM180900 VRB03KT P6SM BKN015
     FM181500 21005KT P6SM SCT025=

USA.gov is the U.S. government's official web portal to all federal, state and local government web resources and services.